IE-0022 weather

Morriscastle Airstrip
Morriscastle, Ireland

Public forecast

Using degrees Celsius for public forecast. Weather courtesy of forecast.io.

Closest aviation weather report (METAR) to Morriscastle Airstrip

Report is more than 2 hours old.

Closest report is Waterford Airport, 36.2 nm (67.0 km) WSW. Retrieved 2020/01/25 20:30 UTC (2 hours ago):

EIWF 252030Z 22012KT 9999 FEW025 BKN036 08/06 Q1009 R21/1/////

Closest aviation forecast (TAF) to Morriscastle Airstrip

Closest forecast is Dublin Airport, 54.3 nm (100.6 km) N. Retrieved 2020/01/25 18:09 UTC (5 hours ago):

TAF EIDW 251700Z 2518/2618 18008KT 9999 FEW013 BKN026 BECMG 2522/2524 19013KT PROB30 TEMPO 2601/2604 BKN013 BECMG 2602/2604 18015G25KT BECMG 2604/2606 20019G30KT TEMPO 2604/2607 7000 -RA SCT008 BKN012 BECMG 2606/2608 26017G28KT PROB40 TEMPO 2607/2609 7000 -SHRA BKN015 BECMG 2608/2610 25013KT PROB40 TEMPO 2612/2615 26014G25KT -SHRA SCT018CB BECMG 2614/2616 22008KT BECMG 2616/2618 19008KT